Hot Springs Village, Arkansas
Current Conditions -  °F | °C
As of 1:53 AM on Friday 31 Oct 2014 (Local Time) from KHOT Reporting Station
Clear Clear  
Wind Chill: 50°   Ceiling: Unl
Heat Index: 50°   Visibility: 10mi
Dew Point: 46°   Wind: 3mph
Humidity: 86%   Direction: 320°NW
Pressure: 30.08"   Gusts: NA
Location:  34.66°N, 93.05°W
Report Text: KHOT 310653Z AUTO 32003KT 10SM CLR 10/08 A3008 RMK AO2 SLP182 T01000078
Loading
Personal Weather Stations






























Interactive Weather Map
Tropical Storm Tracking
New forecast layout! Learn more

10-Day Weather Forecast

Advertisements
Track Severe Weather on mobile